Time;durP1;ratioP1;P1;durP2;ratioP2;P2;SDS_P1;SDS_P2;PMS_P1;PMS_P2;Temp;Humidity;BMP_temperature;BMP_pressure;BME280_temperature;BME280_humidity;BME280_pressure;Samples;Min_cycle;Max_cycle;Signal;HPM_P1;HPM_P2
2023/05/03 00:00:45;;;;;;;7.70;5.47;;;15.20;99.90;;;;;;5067205;28;20041;-74
2023/05/03 00:03:12;;;;;;;6.80;6.30;;;15.10;99.90;;;;;;5050450;28;20036;-74
2023/05/03 00:05:38;;;;;;;7.13;6.53;;;15.10;99.90;;;;;;5050382;28;20048;-75
2023/05/03 00:08:04;;;;;;;6.97;6.28;;;15.00;99.90;;;;;;5049995;28;20033;-75
2023/05/03 00:10:30;;;;;;;6.72;6.15;;;15.00;99.90;;;;;;5050285;28;20041;-74
2023/05/03 00:12:56;;;;;;;6.50;5.90;;;15.00;99.90;;;;;;5067553;28;20025;-74
2023/05/03 00:15:23;;;;;;;6.97;6.35;;;15.00;99.90;;;;;;5051747;28;20521;-74
2023/05/03 00:17:49;;;;;;;6.95;6.28;;;15.00;99.90;;;;;;5050235;28;20049;-76
2023/05/03 00:20:16;;;;;;;6.28;5.78;;;15.00;99.90;;;;;;5051959;28;20033;-74
2023/05/03 00:22:42;;;;;;;7.80;5.68;;;15.00;99.90;;;;;;5051802;28;20033;-75
2023/05/03 00:25:09;;;;;;;7.72;6.20;;;15.00;99.90;;;;;;5050583;28;20029;-75
2023/05/03 00:27:35;;;;;;;6.47;5.95;;;14.80;99.90;;;;;;5051774;28;20037;-75
2023/05/03 00:30:01;;;;;;;6.35;5.75;;;14.80;99.90;;;;;;5051969;28;20021;-75
2023/05/03 00:32:27;;;;;;;8.88;5.88;;;14.80;99.90;;;;;;5051053;28;20029;-75
2023/05/03 00:34:56;;;;;;;5.80;5.30;;;14.80;99.90;;;;;;5067137;28;20036;-74
2023/05/03 00:37:23;;;;;;;8.00;6.05;;;14.60;99.90;;;;;;5060962;28;20276;-75
2023/05/03 00:39:49;;;;;;;6.40;5.85;;;14.50;99.90;;;;;;5050587;28;20029;-75
2023/05/03 00:42:15;;;;;;;6.80;6.20;;;14.50;99.90;;;;;;5033434;28;20041;-76
2023/05/03 00:44:41;;;;;;;6.65;5.97;;;14.50;99.90;;;;;;5050648;28;20025;-74
2023/05/03 00:47:08;;;;;;;7.13;6.40;;;14.40;99.90;;;;;;5049634;28;20048;-75
2023/05/03 00:49:34;;;;;;;7.05;6.40;;;14.40;99.90;;;;;;5049864;28;20041;-74
2023/05/03 00:52:00;;;;;;;6.85;5.93;;;14.50;99.90;;;;;;5069499;28;20496;-74
2023/05/03 00:54:27;;;;;;;7.63;6.43;;;14.40;99.90;;;;;;5054002;28;20029;-76
2023/05/03 00:56:53;;;;;;;6.97;6.35;;;14.40;99.90;;;;;;5054075;28;20033;-75
2023/05/03 00:59:19;;;;;;;6.93;6.22;;;14.30;99.90;;;;;;5054153;28;20494;-74
2023/05/03 01:01:51;;;;;;;9.88;6.35;;;14.20;99.90;;;;;;5053593;28;20029;-74
2023/05/03 01:04:18;;;;;;;6.57;5.97;;;14.20;99.90;;;;;;5053504;28;20033;-74
2023/05/03 01:07:23;;;;;;;7.20;5.35;;;14.10;99.90;;;;;;5052979;28;20052;-76
2023/05/03 01:10:15;;;;;;;8.20;6.25;;;14.10;99.90;;;;;;5013203;28;20034;-76
2023/05/03 01:12:52;;;;;;;7.47;6.78;;;14.00;99.90;;;;;;4996871;28;20375;-74
2023/05/03 01:15:27;;;;;;;7.95;7.15;;;14.00;99.90;;;;;;4996097;28;20044;-75
2023/05/03 01:17:56;;;;;;;7.05;5.88;;;14.00;99.90;;;;;;4980315;28;20045;-75
2023/05/03 01:20:27;;;;;;;9.57;6.20;;;13.90;99.90;;;;;;4996595;28;20037;-76
2023/05/03 01:23:01;;;;;;;6.40;5.73;;;13.90;99.90;;;;;;4997158;28;20030;-74
2023/05/03 01:25:27;;;;;;;7.28;6.13;;;13.90;99.90;;;;;;4980212;28;20324;-75
2023/05/03 01:27:53;;;;;;;7.60;5.57;;;13.90;99.90;;;;;;4996425;28;20046;-75
2023/05/03 01:30:20;;;;;;;6.72;6.13;;;14.00;99.90;;;;;;4996032;28;20042;-74
2023/05/03 01:33:24;;;;;;;6.60;5.90;;;14.00;99.90;;;;;;4996582;28;20026;-75
2023/05/03 01:36:25;;;;;;;6.47;5.88;;;14.00;99.90;;;;;;4914331;29;20067;-75
2023/05/03 01:38:51;;;;;;;7.05;6.38;;;13.90;99.90;;;;;;4881400;29;20052;-75
2023/05/03 01:41:18;;;;;;;8.20;6.47;;;13.80;99.90;;;;;;4910705;29;20175;-74
2023/05/03 01:43:44;;;;;;;7.97;6.10;;;13.70;99.90;;;;;;4936526;29;20071;-74
2023/05/03 01:46:10;;;;;;;7.30;5.80;;;13.80;99.90;;;;;;4937532;28;20035;-75
2023/05/03 01:48:36;;;;;;;7.15;6.45;;;13.80;99.90;;;;;;4937725;29;20479;-74
2023/05/03 01:51:02;;;;;;;7.60;6.75;;;13.80;99.90;;;;;;4954100;29;20030;-75
2023/05/03 01:53:28;;;;;;;7.70;6.97;;;13.70;99.90;;;;;;4954088;29;20054;-76
2023/05/03 01:55:54;;;;;;;7.35;6.65;;;13.60;99.90;;;;;;4953969;29;20035;-75
2023/05/03 01:58:20;;;;;;;8.18;7.00;;;13.50;99.90;;;;;;4937843;29;20154;-76
2023/05/03 02:00:48;;;;;;;8.30;6.55;;;13.40;99.90;;;;;;4952788;28;20515;-75
2023/05/03 02:03:14;;;;;;;9.63;6.80;;;13.40;99.90;;;;;;4932478;28;20027;-75
2023/05/03 02:05:40;;;;;;;7.97;6.68;;;13.40;99.90;;;;;;4950174;28;20039;-75
2023/05/03 02:08:06;;;;;;;6.78;5.53;;;13.50;99.90;;;;;;4933185;29;20398;-75
2023/05/03 02:10:32;;;;;;;7.85;5.80;;;13.50;99.90;;;;;;4962466;28;20398;-75
2023/05/03 02:12:59;;;;;;;7.70;5.93;;;13.30;99.90;;;;;;5052423;28;20028;-75
2023/05/03 02:15:25;;;;;;;6.40;5.70;;;13.30;99.90;;;;;;5050169;28;20044;-76
2023/05/03 02:17:52;;;;;;;7.82;6.07;;;13.30;99.90;;;;;;5050169;28;20049;-75
2023/05/03 02:20:19;;;;;;;6.60;5.90;;;13.30;99.90;;;;;;5050749;28;20048;-75
2023/05/03 02:22:45;;;;;;;9.45;5.60;;;13.30;99.90;;;;;;5067777;28;20048;-76
2023/05/03 02:25:11;;;;;;;9.00;6.32;;;13.20;99.90;;;;;;5052189;28;20036;-76
2023/05/03 02:27:37;;;;;;;7.32;6.63;;;13.10;99.90;;;;;;5051174;28;20042;-75
2023/05/03 02:30:03;;;;;;;7.20;6.35;;;13.10;99.90;;;;;;5050723;28;20029;-75
2023/05/03 02:32:29;;;;;;;7.53;6.28;;;13.20;99.90;;;;;;5050315;28;20494;-76
2023/05/03 02:34:55;;;;;;;6.50;5.53;;;13.10;99.90;;;;;;5033309;28;20036;-75
2023/05/03 02:37:21;;;;;;;10.15;6.22;;;12.90;99.90;;;;;;5048848;28;20049;-75
2023/05/03 02:39:48;;;;;;;6.03;5.43;;;12.90;99.90;;;;;;5053181;28;20032;-75
2023/05/03 02:42:14;;;;;;;8.27;5.95;;;12.90;99.90;;;;;;5053237;28;20029;-76
2023/05/03 02:44:40;;;;;;;10.30;6.25;;;12.90;99.90;;;;;;5051469;28;20033;-75
2023/05/03 02:47:06;;;;;;;6.97;5.90;;;12.80;99.90;;;;;;5052617;28;20067;-75
2023/05/03 02:49:32;;;;;;;8.98;6.45;;;12.80;99.90;;;;;;5068360;28;20056;-74
2023/05/03 02:51:58;;;;;;;6.78;5.72;;;12.70;99.90;;;;;;5053118;28;20033;-75
2023/05/03 02:54:24;;;;;;;9.63;6.32;;;12.80;99.90;;;;;;5051294;28;20044;-75
2023/05/03 02:56:50;;;;;;;10.45;6.30;;;12.80;99.90;;;;;;5051179;28;20045;-76
2023/05/03 02:59:17;;;;;;;11.25;6.78;;;12.70;99.90;;;;;;5068349;28;20028;-75
2023/05/03 03:01:43;;;;;;;7.10;6.40;;;12.70;99.90;;;;;;5050492;28;20033;-75
2023/05/03 03:04:09;;;;;;;7.95;6.50;;;12.50;99.90;;;;;;5068107;28;20040;-75
2023/05/03 03:06:35;;;;;;;7.10;5.03;;;12.60;99.90;;;;;;5052824;28;20035;-75
2023/05/03 03:09:03;;;;;;;8.95;6.95;;;12.50;99.90;;;;;;5068203;28;20462;-75
2023/05/03 03:11:29;;;;;;;9.70;6.53;;;12.50;99.90;;;;;;5052614;28;20032;-77
2023/05/03 03:13:55;;;;;;;9.15;7.32;;;12.50;99.90;;;;;;5067902;28;20047;-76
2023/05/03 03:16:21;;;;;;;8.68;6.20;;;12.50;99.90;;;;;;5051956;28;20037;-76
2023/05/03 03:18:47;;;;;;;7.95;7.07;;;12.40;99.90;;;;;;5052644;28;20033;-75
2023/05/03 03:21:13;;;;;;;7.93;6.60;;;12.40;99.90;;;;;;5068096;28;20032;-75
2023/05/03 03:23:39;;;;;;;10.95;7.25;;;12.40;99.90;;;;;;5068053;28;20035;-74
2023/05/03 03:26:05;;;;;;;7.32;5.38;;;12.30;99.90;;;;;;5068065;28;20037;-75
2023/05/03 03:28:31;;;;;;;10.00;7.25;;;12.30;99.90;;;;;;5052572;28;20036;-75
2023/05/03 03:30:57;;;;;;;9.88;7.13;;;12.20;99.90;;;;;;5049856;28;20044;-75
2023/05/03 03:33:24;;;;;;;10.10;6.88;;;12.20;99.90;;;;;;5068115;28;20025;-76
2023/05/03 03:35:50;;;;;;;8.77;6.40;;;12.20;99.90;;;;;;5050753;28;20045;-75
2023/05/03 03:38:16;;;;;;;10.25;6.68;;;12.20;99.90;;;;;;5051981;28;20052;-76
2023/05/03 03:40:42;;;;;;;10.70;7.65;;;12.20;99.90;;;;;;5051209;28;20033;-75
2023/05/03 03:43:09;;;;;;;9.88;7.32;;;12.20;99.90;;;;;;5052218;28;20029;-75
2023/05/03 03:45:35;;;;;;;10.88;7.07;;;12.20;99.90;;;;;;5050018;28;20029;-75
2023/05/03 03:48:01;;;;;;;11.15;7.82;;;12.10;99.90;;;;;;5067682;28;20028;-75
2023/05/03 03:50:27;;;;;;;9.93;7.88;;;12.10;99.90;;;;;;5052231;28;20033;-75
2023/05/03 03:52:53;;;;;;;11.90;7.82;;;12.10;99.90;;;;;;5050704;28;20033;-75
2023/05/03 03:55:19;;;;;;;11.20;7.72;;;12.10;99.90;;;;;;5067779;28;20029;-75
2023/05/03 03:57:45;;;;;;;9.80;8.10;;;12.10;99.90;;;;;;5067608;28;20470;-76
2023/05/03 04:00:12;;;;;;;10.40;7.65;;;12.10;99.90;;;;;;5051396;28;20025;-76
2023/05/03 04:02:38;;;;;;;11.60;8.30;;;12.20;99.90;;;;;;5052117;28;20036;-75
2023/05/03 04:05:06;;;;;;;10.70;7.85;;;12.20;99.90;;;;;;5050279;28;20041;-76
2023/05/03 04:07:33;;;;;;;9.98;7.63;;;12.10;99.90;;;;;;5050288;28;20044;-76
2023/05/03 04:09:59;;;;;;;13.23;8.13;;;12.10;99.90;;;;;;5050899;28;20048;-75
2023/05/03 04:12:25;;;;;;;11.73;8.65;;;12.00;99.90;;;;;;5067429;28;20041;-75
2023/05/03 04:14:51;;;;;;;12.50;8.90;;;12.00;99.90;;;;;;5067045;28;20044;-75
2023/05/03 04:17:17;;;;;;;15.32;9.00;;;12.00;99.90;;;;;;5049801;28;20052;-75
2023/05/03 04:19:43;;;;;;;12.77;8.10;;;12.00;99.90;;;;;;5052029;28;20029;-75
2023/05/03 04:22:09;;;;;;;12.30;8.93;;;11.90;99.90;;;;;;5067432;28;20036;-75
2023/05/03 04:24:38;;;;;;;13.35;9.02;;;11.90;99.90;;;;;;5050274;28;20502;-76
2023/05/03 04:27:04;;;;;;;14.82;9.07;;;11.80;99.90;;;;;;5054693;28;20412;-75
2023/05/03 04:29:30;;;;;;;13.13;9.18;;;11.80;99.90;;;;;;5070900;28;20033;-75
2023/05/03 04:31:56;;;;;;;15.00;9.48;;;11.80;99.90;;;;;;5053492;28;20378;-75
2023/05/03 04:34:23;;;;;;;13.45;7.75;;;11.80;99.90;;;;;;5055600;28;20044;-75
2023/05/03 04:36:49;;;;;;;12.25;9.43;;;11.80;99.90;;;;;;5054221;28;20036;-74
2023/05/03 04:39:15;;;;;;;14.25;8.73;;;11.80;99.90;;;;;;5054115;28;20045;-77
2023/05/03 04:41:42;;;;;;;14.50;9.27;;;11.80;99.90;;;;;;5054444;28;20040;-75
2023/05/03 04:44:08;;;;;;;13.00;9.60;;;11.80;99.90;;;;;;5037111;28;20428;-75
2023/05/03 04:46:34;;;;;;;14.07;8.73;;;11.70;99.90;;;;;;5053768;28;20030;-75
2023/05/03 04:49:00;;;;;;;12.82;9.43;;;11.70;99.90;;;;;;5053511;28;20037;-74
2023/05/03 04:51:27;;;;;;;15.02;10.05;;;11.70;99.90;;;;;;5070824;28;20025;-75
2023/05/03 04:53:53;;;;;;;15.20;9.13;;;11.70;99.90;;;;;;5070694;28;20025;-75
2023/05/03 04:56:24;;;;;;;16.90;10.18;;;11.70;99.90;;;;;;5053475;28;20037;-75
2023/05/03 04:58:51;;;;;;;14.38;9.52;;;11.60;99.90;;;;;;5054807;28;20469;-75
2023/05/03 05:01:18;;;;;;;14.23;10.32;;;11.70;99.90;;;;;;5070141;28;20033;-74
2023/05/03 05:03:44;;;;;;;13.38;10.23;;;11.70;99.90;;;;;;5070473;28;20037;-75
2023/05/03 05:06:11;;;;;;;15.57;10.10;;;11.70;99.90;;;;;;5053291;28;20052;-76
2023/05/03 05:08:37;;;;;;;13.90;9.75;;;11.60;99.90;;;;;;5053883;28;20025;-75
2023/05/03 05:11:04;;;;;;;15.52;9.95;;;11.60;99.90;;;;;;5070407;28;20025;-75
2023/05/03 05:13:30;;;;;;;14.40;10.57;;;11.50;99.90;;;;;;5054618;28;20377;-75
2023/05/03 05:15:56;;;;;;;13.95;9.95;;;11.60;99.90;;;;;;5070049;28;20029;-75
2023/05/03 05:18:22;;;;;;;14.52;10.55;;;11.70;99.90;;;;;;5070186;28;20099;-75
2023/05/03 05:20:48;;;;;;;15.18;10.20;;;11.60;99.90;;;;;;5054825;28;20331;-76
2023/05/03 05:23:15;;;;;;;11.80;9.32;;;11.70;99.90;;;;;;5053520;28;20029;-75
2023/05/03 05:25:41;;;;;;;7.85;5.85;;;11.70;99.90;;;;;;5054639;28;20394;-75
2023/05/03 05:28:08;;;;;;;14.82;10.38;;;11.70;99.90;;;;;;5054318;28;20039;-76
2023/05/03 05:30:35;;;;;;;16.48;10.48;;;11.80;99.90;;;;;;5069642;28;20033;-76
2023/05/03 05:33:01;;;;;;;14.63;10.25;;;11.90;99.90;;;;;;5054372;28;20032;-75
2023/05/03 05:35:28;;;;;;;16.33;9.65;;;11.80;99.90;;;;;;5054600;28;20029;-75
2023/05/03 05:37:54;;;;;;;16.92;11.02;;;11.80;99.90;;;;;;5052942;28;20045;-75
2023/05/03 05:40:20;;;;;;;12.88;10.05;;;11.90;99.90;;;;;;5069574;28;20025;-75
2023/05/03 05:42:47;;;;;;;14.98;9.32;;;12.00;99.90;;;;;;5054386;28;20044;-76
2023/05/03 05:45:13;;;;;;;14.68;10.27;;;12.00;99.90;;;;;;5053760;28;20527;-75
2023/05/03 05:47:39;;;;;;;14.88;11.15;;;12.00;99.90;;;;;;5052575;28;20048;-76
2023/05/03 05:50:06;;;;;;;12.35;8.90;;;12.10;99.90;;;;;;5054108;28;20045;-75
2023/05/03 05:52:32;;;;;;;13.75;10.68;;;12.20;99.90;;;;;;5052610;28;20033;-75
2023/05/03 05:54:58;;;;;;;16.33;11.05;;;12.20;99.90;;;;;;5069076;28;20032;-75
2023/05/03 05:57:24;;;;;;;15.88;11.20;;;12.30;99.90;;;;;;5069493;28;20036;-75
2023/05/03 05:59:50;;;;;;;12.02;10.10;;;12.40;99.90;;;;;;5052444;28;20112;-74
2023/05/03 06:02:16;;;;;;;15.15;10.80;;;12.50;99.90;;;;;;5068816;28;20048;-76
2023/05/03 06:04:45;;;;;;;15.65;11.30;;;12.70;99.90;;;;;;5052805;28;20025;-75
2023/05/03 06:07:11;;;;;;;17.08;11.18;;;12.80;99.90;;;;;;5052739;28;20024;-75
2023/05/03 06:09:37;;;;;;;11.85;9.68;;;12.80;99.90;;;;;;5068983;28;20032;-75
2023/05/03 06:12:03;;;;;;;15.13;11.23;;;13.10;99.90;;;;;;5069369;28;20462;-75
2023/05/03 06:14:29;;;;;;;14.90;11.02;;;13.00;99.90;;;;;;5053729;28;20033;-75
2023/05/03 06:16:56;;;;;;;7.28;6.20;;;13.00;99.90;;;;;;5035128;28;20036;-75
2023/05/03 06:19:23;;;;;;;11.30;10.10;;;13.10;99.90;;;;;;5069144;28;20041;-75
2023/05/03 06:21:49;;;;;;;15.27;10.90;;;13.20;99.90;;;;;;5051908;28;20051;-75
2023/05/03 06:24:19;;;;;;;12.73;11.30;;;13.30;99.90;;;;;;5052155;28;20394;-76
2023/05/03 06:26:47;;;;;;;13.73;10.95;;;13.60;99.90;;;;;;5068648;28;20021;-76
2023/05/03 06:29:13;;;;;;;12.82;11.50;;;13.60;99.90;;;;;;5052501;28;20025;-75
2023/05/03 06:31:40;;;;;;;11.85;10.45;;;13.70;99.90;;;;;;5052839;28;20401;-75
2023/05/03 06:34:07;;;;;;;13.90;11.18;;;13.80;99.90;;;;;;5051784;28;20052;-74
2023/05/03 06:36:34;;;;;;;8.52;6.78;;;13.70;99.90;;;;;;5068487;28;20025;-76
2023/05/03 06:39:03;;;;;;;11.32;8.55;;;13.70;99.90;;;;;;5051825;28;20389;-76
2023/05/03 06:41:32;;;;;;;14.90;11.18;;;13.80;99.90;;;;;;5053308;28;20028;-75
2023/05/03 06:43:58;;;;;;;15.65;8.50;;;13.90;99.90;;;;;;5068556;28;20045;-77
2023/05/03 06:46:26;;;;;;;10.55;9.30;;;14.10;99.90;;;;;;5052675;28;20033;-74
2023/05/03 06:48:55;;;;;;;11.77;9.77;;;14.10;99.90;;;;;;5034122;28;20044;-75
2023/05/03 06:51:29;;;;;;;12.35;8.77;;;14.10;99.90;;;;;;5051429;28;20084;-75
2023/05/03 06:53:55;;;;;;;10.40;9.30;;;14.30;99.90;;;;;;5067627;28;20033;-75
2023/05/03 06:56:22;;;;;;;12.52;9.52;;;14.30;99.90;;;;;;5051850;28;20029;-75
2023/05/03 06:58:48;;;;;;;11.68;9.52;;;14.40;99.90;;;;;;5068201;28;20367;-74
2023/05/03 07:01:17;;;;;;;11.60;10.13;;;14.50;99.90;;;;;;5051502;28;20029;-75
2023/05/03 07:03:43;;;;;;;10.45;8.18;;;14.70;99.90;;;;;;5051694;28;20419;-75
2023/05/03 07:06:10;;;;;;;10.68;9.60;;;14.80;99.90;;;;;;5068252;28;20029;-74
2023/05/03 07:08:36;;;;;;;10.50;7.57;;;14.90;99.90;;;;;;5050712;28;20033;-75
2023/05/03 07:11:03;;;;;;;10.13;8.80;;;15.00;99.90;;;;;;5051131;28;20500;-74
2023/05/03 07:13:29;;;;;;;10.15;8.80;;;15.10;99.90;;;;;;5052721;28;20052;-74
2023/05/03 07:15:55;;;;;;;10.70;9.30;;;15.20;99.90;;;;;;5052345;28;20036;-74
2023/05/03 07:18:22;;;;;;;11.55;9.50;;;15.30;99.90;;;;;;5067969;28;20041;-74
2023/05/03 07:20:48;;;;;;;13.40;8.93;;;15.50;99.90;;;;;;5052570;28;20362;-74
2023/05/03 07:23:14;;;;;;;11.35;8.70;;;15.50;99.90;;;;;;5067692;28;20028;-75
2023/05/03 07:25:44;;;;;;;12.43;9.00;;;15.50;99.90;;;;;;5067904;28;20020;-74
2023/05/03 07:28:11;;;;;;;7.80;7.07;;;15.60;99.90;;;;;;5051326;28;20021;-75
2023/05/03 07:30:37;;;;;;;7.45;6.65;;;15.80;99.90;;;;;;5050352;28;20030;-75
2023/05/03 07:33:03;;;;;;;9.52;6.65;;;15.90;99.90;;;;;;5067899;28;20489;-75
2023/05/03 07:35:30;;;;;;;8.82;7.38;;;15.90;99.90;;;;;;5050578;28;20037;-74
2023/05/03 07:37:56;;;;;;;9.75;8.50;;;15.90;99.90;;;;;;5067176;28;20033;-75
2023/05/03 07:40:22;;;;;;;8.63;7.45;;;15.90;99.90;;;;;;5051146;28;20033;-74
2023/05/03 07:42:48;;;;;;;11.15;9.32;;;16.00;99.90;;;;;;5051149;28;20044;-74
2023/05/03 07:45:15;;;;;;;13.30;8.68;;;16.10;99.90;;;;;;5051818;28;20029;-74
2023/05/03 07:47:41;;;;;;;8.57;7.68;;;16.30;99.90;;;;;;5067657;28;20029;-74
2023/05/03 07:50:08;;;;;;;9.27;8.27;;;16.40;99.90;;;;;;5052199;28;20494;-74
2023/05/03 07:52:37;;;;;;;8.93;8.13;;;16.60;99.90;;;;;;5050855;28;20021;-75
2023/05/03 07:55:07;;;;;;;9.27;8.38;;;16.50;99.90;;;;;;5050966;28;20033;-75
2023/05/03 07:57:33;;;;;;;10.27;8.23;;;16.60;99.90;;;;;;5067149;28;20036;-75
2023/05/03 07:59:59;;;;;;;7.30;6.70;;;16.80;99.90;;;;;;5051155;28;20040;-74
2023/05/03 08:02:26;;;;;;;7.53;5.72;;;16.90;99.90;;;;;;5055295;28;20041;-74
2023/05/03 08:04:53;;;;;;;9.50;8.55;;;16.90;99.90;;;;;;5054451;28;20045;-75
2023/05/03 08:07:19;;;;;;;9.00;8.15;;;16.90;99.90;;;;;;5056012;28;20048;-73
2023/05/03 08:09:47;;;;;;;9.90;8.23;;;17.10;99.90;;;;;;5056114;28;20033;-74
2023/05/03 08:12:13;;;;;;;9.13;8.02;;;17.30;99.90;;;;;;5055941;28;20029;-74
2023/05/03 08:14:40;;;;;;;8.93;8.10;;;17.40;99.90;;;;;;5071499;28;20505;-74
2023/05/03 08:17:06;;;;;;;7.68;6.88;;;17.50;99.90;;;;;;5055091;28;20040;-74
2023/05/03 08:19:32;;;;;;;9.95;8.63;;;17.50;99.90;;;;;;5054363;28;20051;-74
2023/05/03 08:21:58;;;;;;;8.25;7.45;;;17.60;99.90;;;;;;5071027;28;20381;-75
2023/05/03 08:24:25;;;;;;;10.05;8.25;;;17.90;99.90;;;;;;5055946;28;20048;-74
2023/05/03 08:26:52;;;;;;;8.45;7.78;;;18.00;99.90;;;;;;5071189;28;20028;-75
2023/05/03 08:29:18;;;;;;;9.80;8.68;;;18.20;99.90;;;;;;5055797;28;20488;-74
2023/05/03 08:31:45;;;;;;;9.02;8.32;;;18.20;99.90;;;;;;5055119;28;20033;-74
2023/05/03 08:34:12;;;;;;;6.68;6.18;;;18.40;99.90;;;;;;5053913;28;20036;-75
2023/05/03 08:36:38;;;;;;;11.55;8.23;;;18.50;99.90;;;;;;5070373;28;20512;-74
2023/05/03 08:39:06;;;;;;;8.90;8.00;;;18.60;99.90;;;;;;5054111;28;20051;-74
2023/05/03 08:41:33;;;;;;;7.80;6.68;;;18.50;99.90;;;;;;5054308;28;20462;-74
2023/05/03 08:43:59;;;;;;;8.93;8.20;;;18.50;99.90;;;;;;5054252;28;20029;-75
2023/05/03 08:46:26;;;;;;;8.02;7.32;;;18.60;99.90;;;;;;5053188;28;20029;-74
2023/05/03 08:48:53;;;;;;;8.75;7.90;;;18.60;99.90;;;;;;5055026;28;20402;-74
2023/05/03 08:51:22;;;;;;;9.05;8.25;;;18.80;99.90;;;;;;5070909;28;20508;-75
2023/05/03 08:53:49;;;;;;;9.65;8.75;;;18.90;99.90;;;;;;5053391;28;20052;-75
2023/05/03 08:56:39;;;;;;;10.25;9.32;;;18.90;99.90;;;;;;5054040;28;20032;-74
2023/05/03 08:59:08;;;;;;;10.48;8.48;;;18.80;99.90;;;;;;5053712;28;20071;-75
2023/05/03 09:01:38;;;;;;;9.68;8.88;;;18.90;99.90;;;;;;5069901;28;20032;-75
2023/05/03 09:04:05;;;;;;;10.07;9.18;;;18.90;99.90;;;;;;5053705;28;20028;-75
2023/05/03 09:06:33;;;;;;;9.23;8.48;;;19.20;99.90;;;;;;5055100;28;20025;-74
2023/05/03 09:09:00;;;;;;;10.07;7.88;;;19.40;99.90;;;;;;5055695;28;20036;-75
2023/05/03 09:11:30;;;;;;;7.05;6.50;;;19.40;99.90;;;;;;5070018;28;20033;-74
2023/05/03 09:14:12;;;;;;;7.27;6.70;;;19.40;99.90;;;;;;5055020;28;20029;-74
2023/05/03 09:16:39;;;;;;;8.65;7.85;;;19.50;99.90;;;;;;5054334;28;20780;-74
2023/05/03 09:19:08;;;;;;;9.45;8.00;;;19.50;99.90;;;;;;5036105;28;20055;-75
2023/05/03 09:21:34;;;;;;;11.70;8.15;;;19.60;99.90;;;;;;5053307;28;20037;-75
2023/05/03 09:24:02;;;;;;;8.07;7.38;;;19.80;99.90;;;;;;5053643;28;20024;-75
2023/05/03 09:26:33;;;;;;;10.38;7.85;;;20.00;99.90;;;;;;5069935;28;20036;-74
2023/05/03 09:29:00;;;;;;;8.98;8.27;;;20.10;99.90;;;;;;5070213;28;20020;-74
2023/05/03 09:31:30;;;;;;;8.55;7.85;;;20.10;99.90;;;;;;5052903;28;20036;-74
2023/05/03 09:33:56;;;;;;;8.30;7.53;;;20.20;99.90;;;;;;5053249;28;20032;-74
2023/05/03 09:36:23;;;;;;;7.90;7.40;;;20.40;99.90;;;;;;5053154;28;20029;-74
2023/05/03 09:38:53;;;;;;;9.05;8.25;;;20.50;99.90;;;;;;5053299;28;20037;-74
2023/05/03 09:41:29;;;;;;;8.32;7.63;;;20.30;99.90;;;;;;5053419;28;20032;-75
2023/05/03 09:43:57;;;;;;;7.95;7.25;;;20.10;99.90;;;;;;5052874;28;20029;-73
2023/05/03 09:46:24;;;;;;;8.88;8.15;;;20.10;99.90;;;;;;5052146;28;20393;-74
2023/05/03 09:48:53;;;;;;;8.30;7.70;;;20.20;99.90;;;;;;5052081;28;20055;-75
2023/05/03 09:51:19;;;;;;;8.25;7.65;;;20.30;99.90;;;;;;5054323;28;20017;-74
2023/05/03 09:53:45;;;;;;;8.98;8.00;;;20.40;99.90;;;;;;5069662;28;20032;-77
2023/05/03 09:56:11;;;;;;;8.38;7.57;;;20.30;99.90;;;;;;5052904;28;20021;-75
2023/05/03 09:58:38;;;;;;;7.60;7.10;;;20.20;99.90;;;;;;5069499;28;20045;-74
2023/05/03 10:01:05;;;;;;;8.65;8.05;;;20.50;99.90;;;;;;5052388;28;20044;-76
2023/05/03 10:03:42;;;;;;;9.07;8.38;;;20.60;99.90;;;;;;5069064;28;20029;-74
2023/05/03 10:06:31;;;;;;;8.27;7.65;;;20.50;99.90;;;;;;5069184;28;20040;-74
2023/05/03 10:09:07;;;;;;;12.70;11.77;;;20.60;99.90;;;;;;5069354;28;20029;-75
2023/05/03 10:11:35;;;;;;;8.88;8.07;;;20.80;99.90;;;;;;5053857;28;20021;-74
2023/05/03 10:14:01;;;;;;;13.07;8.07;;;20.80;99.90;;;;;;5052122;28;20033;-74
2023/05/03 10:16:32;;;;;;;8.85;8.15;;;20.70;99.90;;;;;;5051715;28;20037;-75
2023/05/03 10:19:03;;;;;;;8.88;8.00;;;20.80;99.90;;;;;;5051970;28;20056;-74
2023/05/03 10:22:02;;;;;;;8.80;8.25;;;20.90;99.90;;;;;;5069221;28;20029;-75
2023/05/03 10:24:28;;;;;;;7.93;7.32;;;20.90;99.90;;;;;;5051631;28;20036;-75
2023/05/03 10:26:55;;;;;;;11.52;10.82;;;20.90;99.90;;;;;;5035270;28;20033;-74
2023/05/03 10:29:46;;;;;;;8.30;7.57;;;21.00;99.90;;;;;;5053495;28;20036;-75
2023/05/03 10:32:35;;;;;;;8.32;7.63;;;21.10;99.90;;;;;;5052616;28;20028;-74
2023/05/03 10:35:13;;;;;;;8.20;7.50;;;21.20;99.90;;;;;;5052178;28;20029;-73
2023/05/03 10:37:39;;;;;;;9.82;8.68;;;21.30;99.90;;;;;;5068722;28;20028;-74
2023/05/03 10:40:10;;;;;;;9.38;8.68;;;21.50;99.90;;;;;;5051975;28;20051;-75
2023/05/03 10:42:37;;;;;;;8.32;7.63;;;21.60;99.70;;;;;;5052315;28;20025;-74
2023/05/03 10:45:05;;;;;;;7.88;7.38;;;21.60;99.90;;;;;;5051096;28;20029;-74
2023/05/03 10:47:31;;;;;;;11.95;8.68;;;21.70;99.80;;;;;;5051991;28;20021;-74
2023/05/03 10:50:16;;;;;;;9.65;8.85;;;21.50;99.70;;;;;;5053194;28;20394;-74
2023/05/03 10:52:42;;;;;;;7.72;7.10;;;21.60;99.90;;;;;;5053180;28;20029;-74
2023/05/03 10:55:12;;;;;;;7.97;7.38;;;21.70;99.80;;;;;;5067973;28;20037;-74
2023/05/03 10:57:40;;;;;;;9.10;8.15;;;21.80;99.90;;;;;;5051564;28;20037;-74
2023/05/03 11:00:12;;;;;;;8.20;7.60;;;21.70;99.50;;;;;;5050519;28;20056;-74
2023/05/03 11:02:42;;;;;;;7.22;6.78;;;21.70;99.00;;;;;;5051576;28;20043;-74
2023/05/03 11:05:09;;;;;;;8.73;7.82;;;21.90;99.40;;;;;;5051642;28;20387;-74
2023/05/03 11:07:35;;;;;;;10.32;8.57;;;21.80;99.00;;;;;;5068215;28;20032;-75
2023/05/03 11:10:16;;;;;;;9.63;8.73;;;21.90;98.30;;;;;;5068171;28;20033;-74
2023/05/03 11:12:42;;;;;;;;;;;21.90;98.70;;;;;;5068650;28;20391;-74
2023/05/03 11:15:10;;;;;;;9.48;8.48;;;21.90;97.50;;;;;;5067428;28;19915;-75
2023/05/03 11:17:37;;;;;;;9.05;8.35;;;21.90;98.00;;;;;;5052774;28;20032;-75
2023/05/03 11:20:10;;;;;;;9.20;8.60;;;21.90;97.70;;;;;;5051404;28;20033;-74
2023/05/03 11:22:36;;;;;;;9.15;8.48;;;21.90;97.70;;;;;;5051679;28;20382;-74
2023/05/03 11:25:02;;;;;;;9.40;8.73;;;22.00;98.10;;;;;;5050723;28;20041;-74
2023/05/03 11:27:28;;;;;;;9.63;8.93;;;22.20;98.60;;;;;;5050964;28;20037;-74
2023/05/03 11:29:57;;;;;;;9.82;9.13;;;22.40;97.60;;;;;;5052104;28;20025;-74
2023/05/03 11:32:26;;;;;;;9.27;8.60;;;22.40;96.70;;;;;;5051921;28;20383;-74
2023/05/03 11:34:53;;;;;;;8.98;8.38;;;22.40;97.60;;;;;;5067622;28;20029;-76
2023/05/03 11:37:19;;;;;;;10.50;9.52;;;22.60;97.20;;;;;;5067688;28;20040;-74
2023/05/03 11:39:46;;;;;;;10.63;9.70;;;22.60;96.70;;;;;;5051139;28;20068;-75
2023/05/03 11:42:12;;;;;;;10.80;10.00;;;22.60;96.30;;;;;;5052266;28;20028;-74
2023/05/03 11:44:38;;;;;;;8.57;7.78;;;22.60;96.10;;;;;;5050286;28;20041;-74
2023/05/03 11:47:04;;;;;;;9.80;9.05;;;22.60;96.70;;;;;;5067321;28;20036;-74
2023/05/03 11:49:31;;;;;;;9.43;8.57;;;22.60;96.30;;;;;;5050955;28;20486;-75
2023/05/03 11:51:57;;;;;;;10.55;9.85;;;22.80;96.60;;;;;;5050657;28;20041;-76
2023/05/03 11:54:23;;;;;;;9.70;8.80;;;22.70;96.00;;;;;;5050948;28;20029;-74
2023/05/03 11:56:50;;;;;;;9.40;8.80;;;22.60;95.90;;;;;;5052199;28;20036;-74
2023/05/03 11:59:16;;;;;;;9.57;8.90;;;22.70;95.30;;;;;;5050755;28;20179;-74
2023/05/03 12:01:42;;;;;;;10.00;8.63;;;22.80;95.50;;;;;;5067128;28;20033;-74
2023/05/03 12:04:09;;;;;;;8.82;8.13;;;22.90;95.70;;;;;;5067546;28;20029;-74
2023/05/03 12:06:35;;;;;;;10.65;9.75;;;22.90;94.30;;;;;;5052241;28;20021;-74
2023/05/03 12:09:02;;;;;;;10.63;9.82;;;23.00;94.60;;;;;;5050724;28;20029;-74
2023/05/03 12:11:28;;;;;;;10.05;9.20;;;23.20;94.70;;;;;;5050899;28;20021;-74
2023/05/03 12:14:01;;;;;;;9.30;8.60;;;23.10;94.00;;;;;;5050637;28;20363;-75
2023/05/03 12:16:27;;;;;;;10.98;10.20;;;23.10;94.90;;;;;;5051567;28;20041;-66
2023/05/03 12:18:55;;;;;;;10.65;9.88;;;23.00;94.60;;;;;;5051821;28;20028;-66
2023/05/03 12:21:23;;;;;;;10.07;9.38;;;23.00;95.00;;;;;;5051941;28;20043;-66
2023/05/03 12:23:50;;;;;;;11.10;10.25;;;23.20;94.80;;;;;;5051487;28;20049;-66
2023/05/03 12:26:20;;;;;;;10.98;10.10;;;23.10;94.30;;;;;;5052136;28;20044;-67
2023/05/03 12:28:47;;;;;;;10.50;9.70;;;23.20;94.20;;;;;;5051443;28;20066;-66
2023/05/03 12:31:14;;;;;;;11.05;10.15;;;23.20;94.60;;;;;;5066840;28;20036;-66
2023/05/03 12:33:40;;;;;;;9.75;8.95;;;23.10;94.90;;;;;;5051458;28;20044;-68
2023/05/03 12:36:07;;;;;;;10.32;9.57;;;23.20;94.80;;;;;;5051512;28;20375;-67
2023/05/03 12:38:34;;;;;;;10.63;10.02;;;23.30;94.70;;;;;;5051459;28;20052;-66
2023/05/03 12:41:00;;;;;;;10.45;9.65;;;23.30;94.70;;;;;;5051026;28;20049;-67
2023/05/03 12:43:26;;;;;;;8.60;8.10;;;23.30;94.50;;;;;;5051564;28;20028;-67